Fizuli, Azerbaijan
Current Conditions -  °F | °C
As of 9:30 AM on Tuesday 23 Dec 2014 (Local Time) from UBEE Reporting Station
Haze Haze  
Wind Chill:   Ceiling: 2300
Heat Index:   Visibility: 1.8mi
Dew Point:   Wind: 3mph
Humidity: 100%   Direction: 240°WSW
Pressure: 30.09"   Gusts: NA
Location:  39.6°N, 47.15°E
Report Text: UBEE 230430Z 24003KT 3000 BR SCT010OVC023 02/02 Q1019 R30/CLRD70 NOSIG
Loading
Personal Weather Stations






























Interactive Weather Map New forecast layout! Learn more

10-Day Weather Forecast

Advertisements
Track Severe Weather on mobile